sensor_id;sensor_type;location;lat;lon;timestamp;temperature;humidity
11660;DHT22;5886;58.356;12.744;2022-08-02T00:01:43;11.40;99.90
11660;DHT22;5886;58.356;12.744;2022-08-02T00:04:09;11.50;99.90
11660;DHT22;5886;58.356;12.744;2022-08-02T00:06:36;11.50;99.90
11660;DHT22;5886;58.356;12.744;2022-08-02T00:09:03;11.50;99.90
11660;DHT22;5886;58.356;12.744;2022-08-02T00:11:29;11.50;99.90
11660;DHT22;5886;58.356;12.744;2022-08-02T00:13:55;11.50;99.90
11660;DHT22;5886;58.356;12.744;2022-08-02T00:16:21;11.50;99.90
11660;DHT22;5886;58.356;12.744;2022-08-02T00:18:47;11.40;99.90
11660;DHT22;5886;58.356;12.744;2022-08-02T00:21:13;11.40;99.90
11660;DHT22;5886;58.356;12.744;2022-08-02T00:23:39;11.40;99.90
11660;DHT22;5886;58.356;12.744;2022-08-02T00:26:05;11.30;99.90
11660;DHT22;5886;58.356;12.744;2022-08-02T00:28:31;11.20;99.90
11660;DHT22;5886;58.356;12.744;2022-08-02T00:30:57;11.10;99.90
11660;DHT22;5886;58.356;12.744;2022-08-02T00:33:24;11.10;99.90
11660;DHT22;5886;58.356;12.744;2022-08-02T00:35:50;11.00;99.90
11660;DHT22;5886;58.356;12.744;2022-08-02T00:38:16;11.00;99.90
11660;DHT22;5886;58.356;12.744;2022-08-02T00:40:52;11.00;99.90
11660;DHT22;5886;58.356;12.744;2022-08-02T00:43:18;10.90;99.90
11660;DHT22;5886;58.356;12.744;2022-08-02T00:45:44;10.90;99.90
11660;DHT22;5886;58.356;12.744;2022-08-02T00:48:11;10.90;99.90
11660;DHT22;5886;58.356;12.744;2022-08-02T00:50:38;11.00;99.90
11660;DHT22;5886;58.356;12.744;2022-08-02T00:53:04;11.00;99.90
11660;DHT22;5886;58.356;12.744;2022-08-02T00:55:31;11.00;99.90
11660;DHT22;5886;58.356;12.744;2022-08-02T00:57:57;11.00;99.90
11660;DHT22;5886;58.356;12.744;2022-08-02T01:00:23;11.00;99.90
11660;DHT22;5886;58.356;12.744;2022-08-02T01:02:49;11.00;99.90
11660;DHT22;5886;58.356;12.744;2022-08-02T01:05:16;11.00;99.90
11660;DHT22;5886;58.356;12.744;2022-08-02T01:07:42;11.00;99.90
11660;DHT22;5886;58.356;12.744;2022-08-02T01:10:08;10.90;99.90
11660;DHT22;5886;58.356;12.744;2022-08-02T01:12:34;10.90;99.90
11660;DHT22;5886;58.356;12.744;2022-08-02T01:15:03;10.80;99.90
11660;DHT22;5886;58.356;12.744;2022-08-02T01:17:35;10.80;99.90
11660;DHT22;5886;58.356;12.744;2022-08-02T01:29:03;10.90;99.90
11660;DHT22;5886;58.356;12.744;2022-08-02T01:31:39;10.80;99.90
11660;DHT22;5886;58.356;12.744;2022-08-02T01:36:57;10.60;99.90
11660;DHT22;5886;58.356;12.744;2022-08-02T01:39:27;10.60;99.90
11660;DHT22;5886;58.356;12.744;2022-08-02T01:41:56;10.60;99.90
11660;DHT22;5886;58.356;12.744;2022-08-02T01:44:24;10.50;99.90
11660;DHT22;5886;58.356;12.744;2022-08-02T01:46:51;10.50;99.90
11660;DHT22;5886;58.356;12.744;2022-08-02T01:49:20;10.50;99.90
11660;DHT22;5886;58.356;12.744;2022-08-02T01:51:49;10.40;99.90
11660;DHT22;5886;58.356;12.744;2022-08-02T01:54:35;10.40;99.90
11660;DHT22;5886;58.356;12.744;2022-08-02T01:57:04;10.50;99.90
11660;DHT22;5886;58.356;12.744;2022-08-02T01:59:31;10.60;99.90
11660;DHT22;5886;58.356;12.744;2022-08-02T02:01:58;10.70;99.90
11660;DHT22;5886;58.356;12.744;2022-08-02T02:04:27;10.70;99.90
11660;DHT22;5886;58.356;12.744;2022-08-02T02:06:55;10.70;99.90
11660;DHT22;5886;58.356;12.744;2022-08-02T02:09:25;10.70;99.90
11660;DHT22;5886;58.356;12.744;2022-08-02T02:11:52;10.70;99.90
11660;DHT22;5886;58.356;12.744;2022-08-02T02:14:21;10.70;99.90
11660;DHT22;5886;58.356;12.744;2022-08-02T02:16:47;10.70;99.90
11660;DHT22;5886;58.356;12.744;2022-08-02T02:19:17;10.80;99.90
11660;DHT22;5886;58.356;12.744;2022-08-02T02:21:43;10.80;99.90
11660;DHT22;5886;58.356;12.744;2022-08-02T02:24:10;10.70;99.90
11660;DHT22;5886;58.356;12.744;2022-08-02T02:26:37;10.60;99.90
11660;DHT22;5886;58.356;12.744;2022-08-02T02:29:05;10.60;99.90
11660;DHT22;5886;58.356;12.744;2022-08-02T02:31:41;10.60;99.90
11660;DHT22;5886;58.356;12.744;2022-08-02T02:34:15;10.70;99.90
11660;DHT22;5886;58.356;12.744;2022-08-02T02:36:47;10.60;99.90
11660;DHT22;5886;58.356;12.744;2022-08-02T02:39:14;10.60;99.90
11660;DHT22;5886;58.356;12.744;2022-08-02T02:41:43;10.60;99.90
11660;DHT22;5886;58.356;12.744;2022-08-02T02:44:15;10.50;99.90
11660;DHT22;5886;58.356;12.744;2022-08-02T02:46:42;10.50;99.90
11660;DHT22;5886;58.356;12.744;2022-08-02T02:49:10;10.40;99.90
11660;DHT22;5886;58.356;12.744;2022-08-02T02:51:38;10.40;99.90
11660;DHT22;5886;58.356;12.744;2022-08-02T02:54:06;10.40;99.90
11660;DHT22;5886;58.356;12.744;2022-08-02T02:56:34;10.30;99.90
11660;DHT22;5886;58.356;12.744;2022-08-02T02:59:02;10.30;99.90
11660;DHT22;5886;58.356;12.744;2022-08-02T03:01:28;10.30;99.90
11660;DHT22;5886;58.356;12.744;2022-08-02T03:04:00;10.30;99.90
11660;DHT22;5886;58.356;12.744;2022-08-02T03:06:27;10.20;99.90
11660;DHT22;5886;58.356;12.744;2022-08-02T03:08:53;10.20;99.90
11660;DHT22;5886;58.356;12.744;2022-08-02T03:11:19;10.10;99.90
11660;DHT22;5886;58.356;12.744;2022-08-02T03:13:45;10.20;99.90
11660;DHT22;5886;58.356;12.744;2022-08-02T03:16:12;10.20;99.90
11660;DHT22;5886;58.356;12.744;2022-08-02T03:18:40;10.20;99.90
11660;DHT22;5886;58.356;12.744;2022-08-02T03:21:09;10.20;99.90
11660;DHT22;5886;58.356;12.744;2022-08-02T03:23:40;10.20;99.90
11660;DHT22;5886;58.356;12.744;2022-08-02T03:26:08;10.20;99.90
11660;DHT22;5886;58.356;12.744;2022-08-02T03:28:34;10.10;99.90
11660;DHT22;5886;58.356;12.744;2022-08-02T03:31:00;10.20;99.90
11660;DHT22;5886;58.356;12.744;2022-08-02T03:33:27;10.40;99.90
11660;DHT22;5886;58.356;12.744;2022-08-02T03:35:55;10.80;99.90
11660;DHT22;5886;58.356;12.744;2022-08-02T03:38:24;10.80;99.90
11660;DHT22;5886;58.356;12.744;2022-08-02T03:40:51;11.00;99.90
11660;DHT22;5886;58.356;12.744;2022-08-02T03:43:18;11.40;99.90
11660;DHT22;5886;58.356;12.744;2022-08-02T03:45:47;11.70;99.90
11660;DHT22;5886;58.356;12.744;2022-08-02T03:48:17;11.90;99.90
11660;DHT22;5886;58.356;12.744;2022-08-02T03:50:46;12.50;99.90
11660;DHT22;5886;58.356;12.744;2022-08-02T03:53:13;12.50;99.90
11660;DHT22;5886;58.356;12.744;2022-08-02T03:55:41;12.30;99.90
11660;DHT22;5886;58.356;12.744;2022-08-02T03:58:07;12.50;99.90
11660;DHT22;5886;58.356;12.744;2022-08-02T04:00:33;12.80;99.90
11660;DHT22;5886;58.356;12.744;2022-08-02T04:02:58;13.50;99.90
11660;DHT22;5886;58.356;12.744;2022-08-02T04:05:25;14.30;99.90
11660;DHT22;5886;58.356;12.744;2022-08-02T04:07:51;14.80;99.90
11660;DHT22;5886;58.356;12.744;2022-08-02T04:10:17;15.20;99.90
11660;DHT22;5886;58.356;12.744;2022-08-02T04:12:44;15.30;99.90
11660;DHT22;5886;58.356;12.744;2022-08-02T04:15:14;15.50;99.90
11660;DHT22;5886;58.356;12.744;2022-08-02T04:17:44;15.40;99.90
11660;DHT22;5886;58.356;12.744;2022-08-02T04:20:23;15.30;99.90
11660;DHT22;5886;58.356;12.744;2022-08-02T04:23:06;15.00;99.90
11660;DHT22;5886;58.356;12.744;2022-08-02T04:25:35;14.90;99.90
11660;DHT22;5886;58.356;12.744;2022-08-02T04:28:01;14.90;99.90
11660;DHT22;5886;58.356;12.744;2022-08-02T04:30:28;14.90;99.90
11660;DHT22;5886;58.356;12.744;2022-08-02T04:32:54;14.80;99.90
11660;DHT22;5886;58.356;12.744;2022-08-02T04:35:21;14.80;99.90
11660;DHT22;5886;58.356;12.744;2022-08-02T04:37:48;14.80;99.90
11660;DHT22;5886;58.356;12.744;2022-08-02T04:40:13;14.70;99.90
11660;DHT22;5886;58.356;12.744;2022-08-02T04:42:42;14.60;99.90
11660;DHT22;5886;58.356;12.744;2022-08-02T04:45:10;14.50;99.90
11660;DHT22;5886;58.356;12.744;2022-08-02T04:47:36;14.40;99.90
11660;DHT22;5886;58.356;12.744;2022-08-02T04:50:02;14.50;99.90
11660;DHT22;5886;58.356;12.744;2022-08-02T04:52:28;14.50;99.90
11660;DHT22;5886;58.356;12.744;2022-08-02T04:54:57;14.60;99.90
11660;DHT22;5886;58.356;12.744;2022-08-02T04:57:23;15.00;99.90
11660;DHT22;5886;58.356;12.744;2022-08-02T05:00:08;15.40;99.90
11660;DHT22;5886;58.356;12.744;2022-08-02T05:02:35;15.60;99.90
11660;DHT22;5886;58.356;12.744;2022-08-02T05:05:01;15.80;99.90
11660;DHT22;5886;58.356;12.744;2022-08-02T05:07:27;16.60;99.90
11660;DHT22;5886;58.356;12.744;2022-08-02T05:09:53;17.70;99.90
11660;DHT22;5886;58.356;12.744;2022-08-02T05:12:19;18.90;99.90
11660;DHT22;5886;58.356;12.744;2022-08-02T05:14:47;20.10;99.90
11660;DHT22;5886;58.356;12.744;2022-08-02T05:17:13;21.20;99.90
11660;DHT22;5886;58.356;12.744;2022-08-02T05:19:39;21.60;99.90
11660;DHT22;5886;58.356;12.744;2022-08-02T05:22:05;21.70;99.90
11660;DHT22;5886;58.356;12.744;2022-08-02T05:24:31;21.80;99.90
11660;DHT22;5886;58.356;12.744;2022-08-02T05:26:57;21.60;99.90
11660;DHT22;5886;58.356;12.744;2022-08-02T05:29:23;21.50;99.90
11660;DHT22;5886;58.356;12.744;2022-08-02T05:31:49;21.90;99.90
11660;DHT22;5886;58.356;12.744;2022-08-02T05:34:15;22.20;99.90
11660;DHT22;5886;58.356;12.744;2022-08-02T05:36:41;22.20;99.90
11660;DHT22;5886;58.356;12.744;2022-08-02T05:39:07;22.00;99.90
11660;DHT22;5886;58.356;12.744;2022-08-02T05:41:34;21.80;99.90
11660;DHT22;5886;58.356;12.744;2022-08-02T05:44:01;21.50;99.90
11660;DHT22;5886;58.356;12.744;2022-08-02T05:46:27;21.40;99.90
11660;DHT22;5886;58.356;12.744;2022-08-02T05:48:53;21.20;99.90
11660;DHT22;5886;58.356;12.744;2022-08-02T05:51:44;21.00;99.90
11660;DHT22;5886;58.356;12.744;2022-08-02T05:54:22;21.30;99.90
11660;DHT22;5886;58.356;12.744;2022-08-02T05:57:04;21.90;99.90
11660;DHT22;5886;58.356;12.744;2022-08-02T06:05:03;24.30;99.90
11660;DHT22;5886;58.356;12.744;2022-08-02T06:07:30;24.60;99.90
11660;DHT22;5886;58.356;12.744;2022-08-02T06:09:59;24.80;99.90
11660;DHT22;5886;58.356;12.744;2022-08-02T06:12:28;25.00;99.90
11660;DHT22;5886;58.356;12.744;2022-08-02T06:14:57;25.10;99.90
11660;DHT22;5886;58.356;12.744;2022-08-02T06:17:24;25.10;99.90
11660;DHT22;5886;58.356;12.744;2022-08-02T06:19:54;24.90;99.90
11660;DHT22;5886;58.356;12.744;2022-08-02T06:22:27;24.60;99.90
11660;DHT22;5886;58.356;12.744;2022-08-02T06:24:55;24.50;99.90
11660;DHT22;5886;58.356;12.744;2022-08-02T06:27:26;24.40;99.90
11660;DHT22;5886;58.356;12.744;2022-08-02T06:29:53;24.40;99.90
11660;DHT22;5886;58.356;12.744;2022-08-02T06:32:20;24.70;99.90
11660;DHT22;5886;58.356;12.744;2022-08-02T06:34:46;24.60;99.90
11660;DHT22;5886;58.356;12.744;2022-08-02T06:39:46;24.80;99.90
11660;DHT22;5886;58.356;12.744;2022-08-02T06:42:16;25.10;99.90
11660;DHT22;5886;58.356;12.744;2022-08-02T06:44:42;25.40;99.90
11660;DHT22;5886;58.356;12.744;2022-08-02T06:47:08;25.60;99.90
11660;DHT22;5886;58.356;12.744;2022-08-02T06:49:34;25.50;99.90
11660;DHT22;5886;58.356;12.744;2022-08-02T06:52:02;25.50;99.90
11660;DHT22;5886;58.356;12.744;2022-08-02T06:54:28;25.20;99.90
11660;DHT22;5886;58.356;12.744;2022-08-02T06:56:54;25.00;99.90
11660;DHT22;5886;58.356;12.744;2022-08-02T06:59:20;24.90;99.90
11660;DHT22;5886;58.356;12.744;2022-08-02T07:01:46;24.50;99.90
11660;DHT22;5886;58.356;12.744;2022-08-02T07:04:13;23.90;99.90
11660;DHT22;5886;58.356;12.744;2022-08-02T07:06:54;23.30;99.90
11660;DHT22;5886;58.356;12.744;2022-08-02T07:09:42;22.90;99.90
11660;DHT22;5886;58.356;12.744;2022-08-02T07:12:08;22.40;99.90
11660;DHT22;5886;58.356;12.744;2022-08-02T07:14:34;22.10;99.90
11660;DHT22;5886;58.356;12.744;2022-08-02T07:16:59;21.80;99.90
11660;DHT22;5886;58.356;12.744;2022-08-02T07:19:25;21.60;99.90
11660;DHT22;5886;58.356;12.744;2022-08-02T07:21:51;21.30;99.90
11660;DHT22;5886;58.356;12.744;2022-08-02T07:24:17;21.30;99.90
11660;DHT22;5886;58.356;12.744;2022-08-02T07:26:43;21.00;99.90
11660;DHT22;5886;58.356;12.744;2022-08-02T07:29:09;20.90;99.90
11660;DHT22;5886;58.356;12.744;2022-08-02T07:31:35;20.70;99.90
11660;DHT22;5886;58.356;12.744;2022-08-02T07:34:04;20.60;99.90
11660;DHT22;5886;58.356;12.744;2022-08-02T07:36:39;20.60;99.90
11660;DHT22;5886;58.356;12.744;2022-08-02T07:39:05;20.50;99.90
11660;DHT22;5886;58.356;12.744;2022-08-02T07:41:36;20.30;99.90
11660;DHT22;5886;58.356;12.744;2022-08-02T07:44:02;20.20;99.90
11660;DHT22;5886;58.356;12.744;2022-08-02T07:46:28;20.10;99.90
11660;DHT22;5886;58.356;12.744;2022-08-02T07:49:13;20.00;99.90
11660;DHT22;5886;58.356;12.744;2022-08-02T07:52:01;19.80;99.90
11660;DHT22;5886;58.356;12.744;2022-08-02T07:54:27;19.60;99.90
11660;DHT22;5886;58.356;12.744;2022-08-02T08:00:33;19.30;99.90
11660;DHT22;5886;58.356;12.744;2022-08-02T08:03:20;19.20;99.90
11660;DHT22;5886;58.356;12.744;2022-08-02T08:05:46;19.20;99.90
11660;DHT22;5886;58.356;12.744;2022-08-02T08:11:30;19.20;99.90
11660;DHT22;5886;58.356;12.744;2022-08-02T08:17:18;19.20;99.90
11660;DHT22;5886;58.356;12.744;2022-08-02T08:19:50;19.10;99.90
11660;DHT22;5886;58.356;12.744;2022-08-02T08:22:16;19.10;99.90
11660;DHT22;5886;58.356;12.744;2022-08-02T08:25:16;19.10;99.90
11660;DHT22;5886;58.356;12.744;2022-08-02T08:27:49;19.20;99.90
11660;DHT22;5886;58.356;12.744;2022-08-02T08:30:17;19.20;99.90
11660;DHT22;5886;58.356;12.744;2022-08-02T08:32:44;19.30;99.90
11660;DHT22;5886;58.356;12.744;2022-08-02T08:35:10;19.30;99.90
11660;DHT22;5886;58.356;12.744;2022-08-02T08:37:39;19.60;99.90
11660;DHT22;5886;58.356;12.744;2022-08-02T08:40:09;19.70;99.90
11660;DHT22;5886;58.356;12.744;2022-08-02T08:42:53;19.90;99.90
11660;DHT22;5886;58.356;12.744;2022-08-02T08:45:19;20.00;99.90
11660;DHT22;5886;58.356;12.744;2022-08-02T08:48:00;20.10;99.90
11660;DHT22;5886;58.356;12.744;2022-08-02T08:50:30;20.00;99.90
11660;DHT22;5886;58.356;12.744;2022-08-02T08:53:06;20.00;99.90
11660;DHT22;5886;58.356;12.744;2022-08-02T08:55:35;20.10;99.90
11660;DHT22;5886;58.356;12.744;2022-08-02T08:58:03;20.30;99.90
11660;DHT22;5886;58.356;12.744;2022-08-02T09:00:32;20.40;99.90
11660;DHT22;5886;58.356;12.744;2022-08-02T09:03:16;20.50;99.90
11660;DHT22;5886;58.356;12.744;2022-08-02T09:05:45;20.70;99.90
11660;DHT22;5886;58.356;12.744;2022-08-02T09:08:12;21.10;99.90
11660;DHT22;5886;58.356;12.744;2022-08-02T09:10:44;21.40;99.90
11660;DHT22;5886;58.356;12.744;2022-08-02T09:13:25;21.50;99.90
11660;DHT22;5886;58.356;12.744;2022-08-02T09:16:05;21.50;99.90
11660;DHT22;5886;58.356;12.744;2022-08-02T09:18:32;21.60;99.90
11660;DHT22;5886;58.356;12.744;2022-08-02T09:21:03;21.70;99.90
11660;DHT22;5886;58.356;12.744;2022-08-02T09:23:35;21.80;99.90
11660;DHT22;5886;58.356;12.744;2022-08-02T09:26:10;21.90;99.90
11660;DHT22;5886;58.356;12.744;2022-08-02T09:28:38;21.80;99.90
11660;DHT22;5886;58.356;12.744;2022-08-02T09:31:09;21.70;99.90
11660;DHT22;5886;58.356;12.744;2022-08-02T09:33:37;21.60;99.90
11660;DHT22;5886;58.356;12.744;2022-08-02T09:36:07;21.60;99.90
11660;DHT22;5886;58.356;12.744;2022-08-02T09:38:35;21.70;99.90
11660;DHT22;5886;58.356;12.744;2022-08-02T09:41:02;21.80;99.90
11660;DHT22;5886;58.356;12.744;2022-08-02T09:47:15;21.80;99.90
11660;DHT22;5886;58.356;12.744;2022-08-02T09:49:48;21.60;99.90
11660;DHT22;5886;58.356;12.744;2022-08-02T09:52:42;21.50;99.90
11660;DHT22;5886;58.356;12.744;2022-08-02T09:55:32;21.50;99.90
11660;DHT22;5886;58.356;12.744;2022-08-02T09:58:00;21.60;99.90
11660;DHT22;5886;58.356;12.744;2022-08-02T10:00:56;21.60;99.90
11660;DHT22;5886;58.356;12.744;2022-08-02T10:04:28;22.20;99.90
11660;DHT22;5886;58.356;12.744;2022-08-02T10:06:57;22.40;99.90
11660;DHT22;5886;58.356;12.744;2022-08-02T10:09:50;22.50;99.90
11660;DHT22;5886;58.356;12.744;2022-08-02T10:12:46;22.70;99.90
11660;DHT22;5886;58.356;12.744;2022-08-02T10:22:08;23.70;99.90
11660;DHT22;5886;58.356;12.744;2022-08-02T10:24:36;24.00;99.90
11660;DHT22;5886;58.356;12.744;2022-08-02T10:27:13;24.00;99.90
11660;DHT22;5886;58.356;12.744;2022-08-02T10:29:42;24.00;99.90
11660;DHT22;5886;58.356;12.744;2022-08-02T10:32:30;24.10;99.90
11660;DHT22;5886;58.356;12.744;2022-08-02T10:34:59;24.30;99.90
11660;DHT22;5886;58.356;12.744;2022-08-02T10:37:30;24.40;99.90
11660;DHT22;5886;58.356;12.744;2022-08-02T10:39:57;24.10;99.90
11660;DHT22;5886;58.356;12.744;2022-08-02T10:42:42;23.50;99.90
11660;DHT22;5886;58.356;12.744;2022-08-02T10:45:10;22.90;99.90
11660;DHT22;5886;58.356;12.744;2022-08-02T10:47:36;22.50;99.90
11660;DHT22;5886;58.356;12.744;2022-08-02T10:50:02;22.30;99.90
11660;DHT22;5886;58.356;12.744;2022-08-02T10:52:32;22.20;99.90
11660;DHT22;5886;58.356;12.744;2022-08-02T10:54:59;22.40;99.90
11660;DHT22;5886;58.356;12.744;2022-08-02T10:57:33;22.60;99.90
11660;DHT22;5886;58.356;12.744;2022-08-02T11:03:01;23.00;99.90
11660;DHT22;5886;58.356;12.744;2022-08-02T11:05:30;23.30;99.90
11660;DHT22;5886;58.356;12.744;2022-08-02T11:07:56;23.20;99.90
11660;DHT22;5886;58.356;12.744;2022-08-02T11:13:06;23.20;99.90
11660;DHT22;5886;58.356;12.744;2022-08-02T11:16:01;23.10;99.90
11660;DHT22;5886;58.356;12.744;2022-08-02T11:21:34;23.10;99.90
11660;DHT22;5886;58.356;12.744;2022-08-02T11:24:28;22.90;99.90
11660;DHT22;5886;58.356;12.744;2022-08-02T11:26:56;22.80;99.90
11660;DHT22;5886;58.356;12.744;2022-08-02T11:29:41;22.70;99.90
11660;DHT22;5886;58.356;12.744;2022-08-02T11:32:15;22.70;99.90
11660;DHT22;5886;58.356;12.744;2022-08-02T11:34:43;22.60;99.90
11660;DHT22;5886;58.356;12.744;2022-08-02T11:37:10;22.60;99.90
11660;DHT22;5886;58.356;12.744;2022-08-02T11:39:54;22.80;99.90
11660;DHT22;5886;58.356;12.744;2022-08-02T11:42:20;22.70;99.90
11660;DHT22;5886;58.356;12.744;2022-08-02T11:44:46;22.60;99.90
11660;DHT22;5886;58.356;12.744;2022-08-02T11:47:13;22.80;99.90
11660;DHT22;5886;58.356;12.744;2022-08-02T11:49:40;22.80;99.90
11660;DHT22;5886;58.356;12.744;2022-08-02T11:52:07;22.90;99.90
11660;DHT22;5886;58.356;12.744;2022-08-02T11:54:39;23.00;99.90
11660;DHT22;5886;58.356;12.744;2022-08-02T11:57:16;23.00;99.90
11660;DHT22;5886;58.356;12.744;2022-08-02T11:59:44;23.00;99.90
11660;DHT22;5886;58.356;12.744;2022-08-02T12:02:11;22.90;99.90
11660;DHT22;5886;58.356;12.744;2022-08-02T12:04:38;22.90;99.90
11660;DHT22;5886;58.356;12.744;2022-08-02T12:07:05;22.80;99.90
11660;DHT22;5886;58.356;12.744;2022-08-02T12:09:32;22.70;99.90
11660;DHT22;5886;58.356;12.744;2022-08-02T12:11:59;22.50;99.90
11660;DHT22;5886;58.356;12.744;2022-08-02T12:14:27;22.30;99.90
11660;DHT22;5886;58.356;12.744;2022-08-02T12:16:54;22.00;99.90
11660;DHT22;5886;58.356;12.744;2022-08-02T12:19:40;21.80;99.90
11660;DHT22;5886;58.356;12.744;2022-08-02T12:22:25;21.60;99.90
11660;DHT22;5886;58.356;12.744;2022-08-02T12:24:56;21.40;99.90
11660;DHT22;5886;58.356;12.744;2022-08-02T12:29:59;21.30;99.90
11660;DHT22;5886;58.356;12.744;2022-08-02T12:32:25;21.20;99.90
11660;DHT22;5886;58.356;12.744;2022-08-02T12:35:12;21.40;99.90
11660;DHT22;5886;58.356;12.744;2022-08-02T12:37:43;21.50;99.90
11660;DHT22;5886;58.356;12.744;2022-08-02T12:40:25;21.40;99.90
11660;DHT22;5886;58.356;12.744;2022-08-02T12:42:56;21.40;99.90
11660;DHT22;5886;58.356;12.744;2022-08-02T12:45:22;21.30;99.90
11660;DHT22;5886;58.356;12.744;2022-08-02T12:47:53;21.20;99.90
11660;DHT22;5886;58.356;12.744;2022-08-02T12:50:24;21.20;99.90
11660;DHT22;5886;58.356;12.744;2022-08-02T12:52:50;21.20;99.90
11660;DHT22;5886;58.356;12.744;2022-08-02T12:55:26;21.00;99.90
11660;DHT22;5886;58.356;12.744;2022-08-02T12:57:56;20.80;99.90
11660;DHT22;5886;58.356;12.744;2022-08-02T13:00:34;20.70;99.90
11660;DHT22;5886;58.356;12.744;2022-08-02T13:03:01;20.60;99.90
11660;DHT22;5886;58.356;12.744;2022-08-02T13:05:28;20.40;99.90
11660;DHT22;5886;58.356;12.744;2022-08-02T13:07:55;20.10;99.90
11660;DHT22;5886;58.356;12.744;2022-08-02T13:10:22;19.70;99.90
11660;DHT22;5886;58.356;12.744;2022-08-02T13:12:49;19.40;99.90
11660;DHT22;5886;58.356;12.744;2022-08-02T13:15:16;19.20;99.90
11660;DHT22;5886;58.356;12.744;2022-08-02T13:17:42;19.00;99.90
11660;DHT22;5886;58.356;12.744;2022-08-02T13:20:09;18.80;99.90
11660;DHT22;5886;58.356;12.744;2022-08-02T13:22:36;18.70;99.90
11660;DHT22;5886;58.356;12.744;2022-08-02T13:25:03;18.60;99.90
11660;DHT22;5886;58.356;12.744;2022-08-02T13:27:30;18.50;99.90
11660;DHT22;5886;58.356;12.744;2022-08-02T13:29:57;18.40;99.90
11660;DHT22;5886;58.356;12.744;2022-08-02T13:32:24;18.30;99.90
11660;DHT22;5886;58.356;12.744;2022-08-02T13:34:50;18.20;99.90
11660;DHT22;5886;58.356;12.744;2022-08-02T13:37:17;18.20;99.90
11660;DHT22;5886;58.356;12.744;2022-08-02T13:39:43;18.10;99.90
11660;DHT22;5886;58.356;12.744;2022-08-02T13:42:09;18.10;99.90
11660;DHT22;5886;58.356;12.744;2022-08-02T13:44:34;18.00;99.90
11660;DHT22;5886;58.356;12.744;2022-08-02T13:47:01;18.00;99.90
11660;DHT22;5886;58.356;12.744;2022-08-02T13:49:27;18.00;99.90
11660;DHT22;5886;58.356;12.744;2022-08-02T13:51:53;17.90;99.90
11660;DHT22;5886;58.356;12.744;2022-08-02T13:54:19;18.00;99.90
11660;DHT22;5886;58.356;12.744;2022-08-02T13:56:45;18.00;99.90
11660;DHT22;5886;58.356;12.744;2022-08-02T13:59:11;18.00;99.90
11660;DHT22;5886;58.356;12.744;2022-08-02T14:01:37;18.00;99.90
11660;DHT22;5886;58.356;12.744;2022-08-02T14:04:03;18.00;99.90
11660;DHT22;5886;58.356;12.744;2022-08-02T14:06:29;18.00;99.90
11660;DHT22;5886;58.356;12.744;2022-08-02T14:08:55;18.00;99.90
11660;DHT22;5886;58.356;12.744;2022-08-02T14:11:21;18.10;99.90
11660;DHT22;5886;58.356;12.744;2022-08-02T14:13:49;18.10;99.90
11660;DHT22;5886;58.356;12.744;2022-08-02T14:16:15;18.10;99.90
11660;DHT22;5886;58.356;12.744;2022-08-02T14:18:40;18.10;99.90
11660;DHT22;5886;58.356;12.744;2022-08-02T14:21:06;18.10;99.90
11660;DHT22;5886;58.356;12.744;2022-08-02T14:23:32;18.20;99.90
11660;DHT22;5886;58.356;12.744;2022-08-02T14:25:58;18.20;99.90
11660;DHT22;5886;58.356;12.744;2022-08-02T14:28:24;18.20;99.90
11660;DHT22;5886;58.356;12.744;2022-08-02T14:30:52;18.30;99.90
11660;DHT22;5886;58.356;12.744;2022-08-02T14:33:19;18.20;99.90
11660;DHT22;5886;58.356;12.744;2022-08-02T14:35:45;18.20;99.90
11660;DHT22;5886;58.356;12.744;2022-08-02T14:38:11;18.20;99.90
11660;DHT22;5886;58.356;12.744;2022-08-02T14:40:37;18.30;99.90
11660;DHT22;5886;58.356;12.744;2022-08-02T14:43:03;18.30;99.90
11660;DHT22;5886;58.356;12.744;2022-08-02T14:45:29;18.30;99.90
11660;DHT22;5886;58.356;12.744;2022-08-02T14:47:56;18.40;99.90
11660;DHT22;5886;58.356;12.744;2022-08-02T14:50:22;18.50;99.90
11660;DHT22;5886;58.356;12.744;2022-08-02T14:52:48;18.50;99.90
11660;DHT22;5886;58.356;12.744;2022-08-02T14:55:15;18.60;99.90
11660;DHT22;5886;58.356;12.744;2022-08-02T14:57:41;18.60;99.90
11660;DHT22;5886;58.356;12.744;2022-08-02T15:00:08;18.60;99.90
11660;DHT22;5886;58.356;12.744;2022-08-02T15:02:34;18.60;99.90
11660;DHT22;5886;58.356;12.744;2022-08-02T15:05:00;18.60;99.90
11660;DHT22;5886;58.356;12.744;2022-08-02T15:07:26;18.50;99.90
11660;DHT22;5886;58.356;12.744;2022-08-02T15:09:52;18.50;99.90
11660;DHT22;5886;58.356;12.744;2022-08-02T15:12:18;18.50;99.90
11660;DHT22;5886;58.356;12.744;2022-08-02T15:14:44;18.40;99.90
11660;DHT22;5886;58.356;12.744;2022-08-02T15:17:11;18.40;99.90
11660;DHT22;5886;58.356;12.744;2022-08-02T15:19:37;18.40;99.90
11660;DHT22;5886;58.356;12.744;2022-08-02T15:22:05;18.30;99.90
11660;DHT22;5886;58.356;12.744;2022-08-02T15:24:31;18.30;99.90
11660;DHT22;5886;58.356;12.744;2022-08-02T15:26:57;18.20;99.90
11660;DHT22;5886;58.356;12.744;2022-08-02T15:29:23;18.10;99.90
11660;DHT22;5886;58.356;12.744;2022-08-02T15:31:49;18.10;99.90
11660;DHT22;5886;58.356;12.744;2022-08-02T15:34:15;18.10;99.90
11660;DHT22;5886;58.356;12.744;2022-08-02T15:36:40;18.00;99.90
11660;DHT22;5886;58.356;12.744;2022-08-02T15:39:06;18.00;99.90
11660;DHT22;5886;58.356;12.744;2022-08-02T15:41:32;17.90;99.90
11660;DHT22;5886;58.356;12.744;2022-08-02T15:43:58;17.90;99.90
11660;DHT22;5886;58.356;12.744;2022-08-02T15:46:26;17.80;99.90
11660;DHT22;5886;58.356;12.744;2022-08-02T15:48:52;17.80;99.90
11660;DHT22;5886;58.356;12.744;2022-08-02T15:51:18;17.80;99.90
11660;DHT22;5886;58.356;12.744;2022-08-02T15:53:44;17.70;99.90
11660;DHT22;5886;58.356;12.744;2022-08-02T15:56:10;17.70;99.90
11660;DHT22;5886;58.356;12.744;2022-08-02T15:58:35;17.70;99.90
11660;DHT22;5886;58.356;12.744;2022-08-02T16:01:01;17.60;99.90
11660;DHT22;5886;58.356;12.744;2022-08-02T16:03:27;17.60;99.90
11660;DHT22;5886;58.356;12.744;2022-08-02T16:05:53;17.60;99.90
11660;DHT22;5886;58.356;12.744;2022-08-02T16:08:19;17.60;99.90
11660;DHT22;5886;58.356;12.744;2022-08-02T16:10:45;17.60;99.90
11660;DHT22;5886;58.356;12.744;2022-08-02T16:13:10;17.60;99.90
11660;DHT22;5886;58.356;12.744;2022-08-02T16:15:56;17.60;99.90
11660;DHT22;5886;58.356;12.744;2022-08-02T16:18:23;17.60;99.90
11660;DHT22;5886;58.356;12.744;2022-08-02T16:20:49;17.60;99.90
11660;DHT22;5886;58.356;12.744;2022-08-02T16:23:14;17.50;99.90
11660;DHT22;5886;58.356;12.744;2022-08-02T16:25:40;17.50;99.90
11660;DHT22;5886;58.356;12.744;2022-08-02T16:28:06;17.40;99.90
11660;DHT22;5886;58.356;12.744;2022-08-02T16:30:32;17.40;99.90
11660;DHT22;5886;58.356;12.744;2022-08-02T16:32:58;17.40;99.90
11660;DHT22;5886;58.356;12.744;2022-08-02T16:35:24;17.40;99.90